sensor_id;sensor_type;location;lat;lon;timestamp;temperature;humidity
15298;DHT22;7750;48.796;9.026;2022-11-18T00:04:55;12.50;74.50
15298;DHT22;7750;48.796;9.026;2022-11-18T00:09:55;12.50;74.60
15298;DHT22;7750;48.796;9.026;2022-11-18T00:14:56;12.50;74.70
15298;DHT22;7750;48.796;9.026;2022-11-18T00:19:57;12.50;74.70
15298;DHT22;7750;48.796;9.026;2022-11-18T00:24:57;12.50;75.30
15298;DHT22;7750;48.796;9.026;2022-11-18T00:29:58;12.40;75.10
15298;DHT22;7750;48.796;9.026;2022-11-18T00:34:58;12.40;75.20
15298;DHT22;7750;48.796;9.026;2022-11-18T00:39:59;12.40;75.20
15298;DHT22;7750;48.796;9.026;2022-11-18T00:45:00;12.40;75.50
15298;DHT22;7750;48.796;9.026;2022-11-18T00:50:00;12.40;75.50
15298;DHT22;7750;48.796;9.026;2022-11-18T00:55:01;12.40;75.70
15298;DHT22;7750;48.796;9.026;2022-11-18T01:00:02;12.40;76.00
15298;DHT22;7750;48.796;9.026;2022-11-18T01:05:04;12.40;76.30
15298;DHT22;7750;48.796;9.026;2022-11-18T01:10:05;12.40;76.90
15298;DHT22;7750;48.796;9.026;2022-11-18T01:15:06;12.30;77.10
15298;DHT22;7750;48.796;9.026;2022-11-18T01:20:07;12.30;77.50
15298;DHT22;7750;48.796;9.026;2022-11-18T01:25:08;12.20;77.30
15298;DHT22;7750;48.796;9.026;2022-11-18T01:30:09;12.20;77.30
15298;DHT22;7750;48.796;9.026;2022-11-18T01:35:10;12.20;77.60
15298;DHT22;7750;48.796;9.026;2022-11-18T01:40:11;12.20;77.40
15298;DHT22;7750;48.796;9.026;2022-11-18T01:45:24;12.20;77.80
15298;DHT22;7750;48.796;9.026;2022-11-18T01:50:26;12.20;78.10
15298;DHT22;7750;48.796;9.026;2022-11-18T01:55:32;12.20;77.90
15298;DHT22;7750;48.796;9.026;2022-11-18T02:00:33;12.20;78.10
15298;DHT22;7750;48.796;9.026;2022-11-18T02:05:34;12.20;78.00
15298;DHT22;7750;48.796;9.026;2022-11-18T02:10:35;12.20;78.10
15298;DHT22;7750;48.796;9.026;2022-11-18T02:20:45;12.20;78.00
15298;DHT22;7750;48.796;9.026;2022-11-18T02:26:33;12.30;78.30
15298;DHT22;7750;48.796;9.026;2022-11-18T02:42:09;12.30;78.90
15298;DHT22;7750;48.796;9.026;2022-11-18T02:47:12;12.30;78.10
15298;DHT22;7750;48.796;9.026;2022-11-18T02:52:15;12.40;78.30
15298;DHT22;7750;48.796;9.026;2022-11-18T02:57:18;12.40;78.40
15298;DHT22;7750;48.796;9.026;2022-11-18T03:02:20;12.30;78.30
15298;DHT22;7750;48.796;9.026;2022-11-18T03:07:29;12.30;78.60
15298;DHT22;7750;48.796;9.026;2022-11-18T03:12:53;12.30;79.90
15298;DHT22;7750;48.796;9.026;2022-11-18T03:23:33;12.20;79.80
15298;DHT22;7750;48.796;9.026;2022-11-18T03:28:48;12.10;80.00
15298;DHT22;7750;48.796;9.026;2022-11-18T03:34:14;12.10;79.90
15298;DHT22;7750;48.796;9.026;2022-11-18T03:39:18;12.10;80.00
15298;DHT22;7750;48.796;9.026;2022-11-18T03:44:25;12.00;80.50
15298;DHT22;7750;48.796;9.026;2022-11-18T03:49:32;12.00;80.20
15298;DHT22;7750;48.796;9.026;2022-11-18T03:54:37;12.00;80.40
15298;DHT22;7750;48.796;9.026;2022-11-18T03:59:52;12.00;80.30
15298;DHT22;7750;48.796;9.026;2022-11-18T04:04:56;12.00;80.40
15298;DHT22;7750;48.796;9.026;2022-11-18T04:15:12;11.90;80.00
15298;DHT22;7750;48.796;9.026;2022-11-18T04:20:20;11.90;80.00
15298;DHT22;7750;48.796;9.026;2022-11-18T04:25:21;11.90;80.10
15298;DHT22;7750;48.796;9.026;2022-11-18T04:30:23;11.80;79.90
15298;DHT22;7750;48.796;9.026;2022-11-18T04:35:24;11.80;79.50
15298;DHT22;7750;48.796;9.026;2022-11-18T04:40:25;11.70;79.10
15298;DHT22;7750;48.796;9.026;2022-11-18T04:45:26;11.60;78.80
15298;DHT22;7750;48.796;9.026;2022-11-18T04:50:26;11.60;79.00
15298;DHT22;7750;48.796;9.026;2022-11-18T04:55:27;11.50;79.00
15298;DHT22;7750;48.796;9.026;2022-11-18T05:00:28;11.50;79.30
15298;DHT22;7750;48.796;9.026;2022-11-18T05:05:28;11.50;79.50
15298;DHT22;7750;48.796;9.026;2022-11-18T05:10:29;11.50;79.50
15298;DHT22;7750;48.796;9.026;2022-11-18T05:15:30;11.50;79.40
15298;DHT22;7750;48.796;9.026;2022-11-18T05:20:31;11.50;79.60
15298;DHT22;7750;48.796;9.026;2022-11-18T05:25:32;11.50;79.50
15298;DHT22;7750;48.796;9.026;2022-11-18T05:30:32;11.40;79.30
15298;DHT22;7750;48.796;9.026;2022-11-18T05:35:35;11.40;79.50
15298;DHT22;7750;48.796;9.026;2022-11-18T05:40:36;11.40;79.20
15298;DHT22;7750;48.796;9.026;2022-11-18T05:45:37;11.40;79.10
15298;DHT22;7750;48.796;9.026;2022-11-18T05:50:38;11.40;79.10
15298;DHT22;7750;48.796;9.026;2022-11-18T06:00:46;11.30;79.10
15298;DHT22;7750;48.796;9.026;2022-11-18T06:05:48;11.30;79.10
15298;DHT22;7750;48.796;9.026;2022-11-18T06:10:50;11.30;79.20
15298;DHT22;7750;48.796;9.026;2022-11-18T06:15:51;11.30;79.20
15298;DHT22;7750;48.796;9.026;2022-11-18T06:20:55;11.20;78.80
15298;DHT22;7750;48.796;9.026;2022-11-18T06:25:57;11.20;79.00
15298;DHT22;7750;48.796;9.026;2022-11-18T06:30:58;11.10;79.00
15298;DHT22;7750;48.796;9.026;2022-11-18T06:35:58;11.10;79.00
15298;DHT22;7750;48.796;9.026;2022-11-18T06:41:00;11.10;79.20
15298;DHT22;7750;48.796;9.026;2022-11-18T06:46:02;11.00;79.50
15298;DHT22;7750;48.796;9.026;2022-11-18T06:51:22;11.00;79.50
15298;DHT22;7750;48.796;9.026;2022-11-18T06:56:23;11.00;79.50
15298;DHT22;7750;48.796;9.026;2022-11-18T07:01:28;11.00;79.40
15298;DHT22;7750;48.796;9.026;2022-11-18T07:06:31;10.90;79.60
15298;DHT22;7750;48.796;9.026;2022-11-18T07:11:32;10.90;80.00
15298;DHT22;7750;48.796;9.026;2022-11-18T07:16:34;10.90;80.00
15298;DHT22;7750;48.796;9.026;2022-11-18T07:21:38;10.90;80.30
15298;DHT22;7750;48.796;9.026;2022-11-18T07:26:39;10.90;80.60
15298;DHT22;7750;48.796;9.026;2022-11-18T07:31:40;10.90;80.80
15298;DHT22;7750;48.796;9.026;2022-11-18T07:36:41;10.90;81.10
15298;DHT22;7750;48.796;9.026;2022-11-18T07:41:42;10.90;81.20
15298;DHT22;7750;48.796;9.026;2022-11-18T07:46:46;10.90;81.20
15298;DHT22;7750;48.796;9.026;2022-11-18T07:51:46;10.90;81.30
15298;DHT22;7750;48.796;9.026;2022-11-18T07:56:47;10.90;81.40
15298;DHT22;7750;48.796;9.026;2022-11-18T08:01:48;10.90;81.70
15298;DHT22;7750;48.796;9.026;2022-11-18T08:06:48;10.90;81.90
15298;DHT22;7750;48.796;9.026;2022-11-18T08:11:49;10.90;82.20
15298;DHT22;7750;48.796;9.026;2022-11-18T08:16:49;10.90;82.20
15298;DHT22;7750;48.796;9.026;2022-11-18T08:21:50;10.90;82.40
15298;DHT22;7750;48.796;9.026;2022-11-18T08:26:51;11.00;82.70
15298;DHT22;7750;48.796;9.026;2022-11-18T08:31:51;11.00;82.90
15298;DHT22;7750;48.796;9.026;2022-11-18T08:36:52;11.10;83.00
15298;DHT22;7750;48.796;9.026;2022-11-18T08:41:52;11.10;82.80
15298;DHT22;7750;48.796;9.026;2022-11-18T08:46:53;11.20;83.00
15298;DHT22;7750;48.796;9.026;2022-11-18T08:51:54;11.20;82.90
15298;DHT22;7750;48.796;9.026;2022-11-18T08:56:54;11.20;83.60
15298;DHT22;7750;48.796;9.026;2022-11-18T09:01:55;11.20;83.00
15298;DHT22;7750;48.796;9.026;2022-11-18T09:06:56;11.20;83.40
15298;DHT22;7750;48.796;9.026;2022-11-18T09:11:56;11.30;83.30
15298;DHT22;7750;48.796;9.026;2022-11-18T09:16:57;11.30;83.40
15298;DHT22;7750;48.796;9.026;2022-11-18T09:21:57;11.30;83.60
15298;DHT22;7750;48.796;9.026;2022-11-18T09:27:01;11.30;84.20
15298;DHT22;7750;48.796;9.026;2022-11-18T09:32:03;11.40;84.00
15298;DHT22;7750;48.796;9.026;2022-11-18T09:37:04;11.40;84.00
15298;DHT22;7750;48.796;9.026;2022-11-18T09:47:33;11.60;85.00
15298;DHT22;7750;48.796;9.026;2022-11-18T09:53:07;11.60;84.60
15298;DHT22;7750;48.796;9.026;2022-11-18T09:58:26;11.70;84.90
15298;DHT22;7750;48.796;9.026;2022-11-18T10:03:30;11.80;84.50
15298;DHT22;7750;48.796;9.026;2022-11-18T10:08:39;11.80;84.30
15298;DHT22;7750;48.796;9.026;2022-11-18T10:24:15;12.00;85.10
15298;DHT22;7750;48.796;9.026;2022-11-18T10:29:18;12.00;85.40
15298;DHT22;7750;48.796;9.026;2022-11-18T10:34:19;12.00;84.70
15298;DHT22;7750;48.796;9.026;2022-11-18T10:39:19;12.10;84.60
15298;DHT22;7750;48.796;9.026;2022-11-18T10:44:30;12.10;85.60
15298;DHT22;7750;48.796;9.026;2022-11-18T10:49:37;12.20;84.60
15298;DHT22;7750;48.796;9.026;2022-11-18T10:54:39;12.30;84.70
15298;DHT22;7750;48.796;9.026;2022-11-18T11:04:51;12.30;84.30
15298;DHT22;7750;48.796;9.026;2022-11-18T11:15:09;12.30;83.90
15298;DHT22;7750;48.796;9.026;2022-11-18T11:25:42;12.30;83.60
15298;DHT22;7750;48.796;9.026;2022-11-18T11:31:01;12.30;84.40
15298;DHT22;7750;48.796;9.026;2022-11-18T11:36:27;12.40;84.60
15298;DHT22;7750;48.796;9.026;2022-11-18T11:41:38;12.40;84.10
15298;DHT22;7750;48.796;9.026;2022-11-18T12:03:44;12.40;84.00
15298;DHT22;7750;48.796;9.026;2022-11-18T12:09:12;12.40;82.60
15298;DHT22;7750;48.796;9.026;2022-11-18T12:19:37;12.40;82.20
15298;DHT22;7750;48.796;9.026;2022-11-18T12:24:39;12.30;82.10
15298;DHT22;7750;48.796;9.026;2022-11-18T12:34:57;12.20;82.70
15298;DHT22;7750;48.796;9.026;2022-11-18T12:39:59;12.20;82.90
15298;DHT22;7750;48.796;9.026;2022-11-18T12:56:27;12.30;85.00
15298;DHT22;7750;48.796;9.026;2022-11-18T13:01:32;12.30;84.60
15298;DHT22;7750;48.796;9.026;2022-11-18T13:06:37;12.40;84.00
15298;DHT22;7750;48.796;9.026;2022-11-18T13:11:54;12.50;84.80
15298;DHT22;7750;48.796;9.026;2022-11-18T13:16:55;12.70;84.80
15298;DHT22;7750;48.796;9.026;2022-11-18T13:22:17;12.80;84.10
15298;DHT22;7750;48.796;9.026;2022-11-18T13:32:47;12.90;81.20
15298;DHT22;7750;48.796;9.026;2022-11-18T13:37:57;12.90;81.80
15298;DHT22;7750;48.796;9.026;2022-11-18T13:42:58;13.10;81.80
15298;DHT22;7750;48.796;9.026;2022-11-18T13:48:09;13.20;80.00
15298;DHT22;7750;48.796;9.026;2022-11-18T13:53:30;13.20;78.20
15298;DHT22;7750;48.796;9.026;2022-11-18T13:58:38;13.20;79.00
15298;DHT22;7750;48.796;9.026;2022-11-18T14:03:47;13.30;79.30
15298;DHT22;7750;48.796;9.026;2022-11-18T14:08:48;13.40;78.50
15298;DHT22;7750;48.796;9.026;2022-11-18T14:13:52;13.40;77.70
15298;DHT22;7750;48.796;9.026;2022-11-18T14:18:54;13.40;78.30
15298;DHT22;7750;48.796;9.026;2022-11-18T14:23:55;13.50;77.80
15298;DHT22;7750;48.796;9.026;2022-11-18T14:28:58;13.50;77.60
15298;DHT22;7750;48.796;9.026;2022-11-18T14:39:27;13.80;75.80
15298;DHT22;7750;48.796;9.026;2022-11-18T14:44:27;14.00;76.40
15298;DHT22;7750;48.796;9.026;2022-11-18T14:49:30;14.20;76.70
15298;DHT22;7750;48.796;9.026;2022-11-18T14:54:32;14.40;75.20
15298;DHT22;7750;48.796;9.026;2022-11-18T14:59:32;14.50;73.20
15298;DHT22;7750;48.796;9.026;2022-11-18T15:04:33;14.40;73.10
15298;DHT22;7750;48.796;9.026;2022-11-18T15:09:33;14.30;73.20
15298;DHT22;7750;48.796;9.026;2022-11-18T15:14:34;14.10;72.80
15298;DHT22;7750;48.796;9.026;2022-11-18T15:19:35;14.00;73.40
15298;DHT22;7750;48.796;9.026;2022-11-18T15:24:36;13.90;72.90
15298;DHT22;7750;48.796;9.026;2022-11-18T15:29:38;13.80;73.30
15298;DHT22;7750;48.796;9.026;2022-11-18T15:34:39;13.70;73.60
15298;DHT22;7750;48.796;9.026;2022-11-18T15:39:40;13.50;73.90
15298;DHT22;7750;48.796;9.026;2022-11-18T15:44:40;13.40;74.30
15298;DHT22;7750;48.796;9.026;2022-11-18T15:49:41;13.30;74.60
15298;DHT22;7750;48.796;9.026;2022-11-18T15:54:44;13.20;74.20
15298;DHT22;7750;48.796;9.026;2022-11-18T15:59:45;13.10;74.60
15298;DHT22;7750;48.796;9.026;2022-11-18T16:04:46;13.00;75.90
15298;DHT22;7750;48.796;9.026;2022-11-18T16:09:46;12.90;75.30
15298;DHT22;7750;48.796;9.026;2022-11-18T16:15:06;12.90;75.30
15298;DHT22;7750;48.796;9.026;2022-11-18T16:20:25;12.80;75.30
15298;DHT22;7750;48.796;9.026;2022-11-18T16:25:26;12.80;74.80
15298;DHT22;7750;48.796;9.026;2022-11-18T16:30:27;12.70;74.50
15298;DHT22;7750;48.796;9.026;2022-11-18T16:35:47;12.60;74.40
15298;DHT22;7750;48.796;9.026;2022-11-18T16:40:54;12.50;74.30
15298;DHT22;7750;48.796;9.026;2022-11-18T16:45:55;12.40;74.30
15298;DHT22;7750;48.796;9.026;2022-11-18T16:56:16;12.30;74.90
15298;DHT22;7750;48.796;9.026;2022-11-18T17:01:17;12.10;74.80
15298;DHT22;7750;48.796;9.026;2022-11-18T17:06:19;12.00;75.00
15298;DHT22;7750;48.796;9.026;2022-11-18T17:11:19;12.00;75.40
15298;DHT22;7750;48.796;9.026;2022-11-18T17:16:21;12.00;75.50
15298;DHT22;7750;48.796;9.026;2022-11-18T17:21:22;11.90;75.60
15298;DHT22;7750;48.796;9.026;2022-11-18T17:26:26;11.90;75.60
15298;DHT22;7750;48.796;9.026;2022-11-18T17:31:27;11.90;75.60
15298;DHT22;7750;48.796;9.026;2022-11-18T17:36:28;11.80;75.40
15298;DHT22;7750;48.796;9.026;2022-11-18T17:41:28;11.80;75.60
15298;DHT22;7750;48.796;9.026;2022-11-18T17:46:48;11.70;75.70
15298;DHT22;7750;48.796;9.026;2022-11-18T17:51:49;11.70;76.00
15298;DHT22;7750;48.796;9.026;2022-11-18T17:56:50;11.70;76.10
15298;DHT22;7750;48.796;9.026;2022-11-18T18:01:51;11.70;76.10
15298;DHT22;7750;48.796;9.026;2022-11-18T18:06:52;11.60;76.10
15298;DHT22;7750;48.796;9.026;2022-11-18T18:11:54;11.60;76.00
15298;DHT22;7750;48.796;9.026;2022-11-18T18:16:54;11.60;76.00
15298;DHT22;7750;48.796;9.026;2022-11-18T18:21:55;11.50;76.00
15298;DHT22;7750;48.796;9.026;2022-11-18T18:26:55;11.40;76.10
15298;DHT22;7750;48.796;9.026;2022-11-18T18:31:56;11.40;76.20
15298;DHT22;7750;48.796;9.026;2022-11-18T18:36:57;11.40;76.10
15298;DHT22;7750;48.796;9.026;2022-11-18T18:41:58;11.40;76.10
15298;DHT22;7750;48.796;9.026;2022-11-18T18:46:59;11.30;76.10
15298;DHT22;7750;48.796;9.026;2022-11-18T18:52:00;11.20;76.20
15298;DHT22;7750;48.796;9.026;2022-11-18T18:57:00;11.20;76.30
15298;DHT22;7750;48.796;9.026;2022-11-18T19:02:02;11.10;76.30
15298;DHT22;7750;48.796;9.026;2022-11-18T19:07:02;11.10;76.60
15298;DHT22;7750;48.796;9.026;2022-11-18T19:12:04;11.00;76.70
15298;DHT22;7750;48.796;9.026;2022-11-18T19:17:23;11.00;77.10
15298;DHT22;7750;48.796;9.026;2022-11-18T19:22:24;11.00;77.30
15298;DHT22;7750;48.796;9.026;2022-11-18T19:27:25;11.00;77.40
15298;DHT22;7750;48.796;9.026;2022-11-18T19:32:26;11.00;77.50
15298;DHT22;7750;48.796;9.026;2022-11-18T19:37:26;10.90;77.40
15298;DHT22;7750;48.796;9.026;2022-11-18T19:42:27;10.90;77.60
15298;DHT22;7750;48.796;9.026;2022-11-18T19:47:28;10.90;77.70
15298;DHT22;7750;48.796;9.026;2022-11-18T19:52:29;10.90;77.70
15298;DHT22;7750;48.796;9.026;2022-11-18T19:57:30;10.90;77.80
15298;DHT22;7750;48.796;9.026;2022-11-18T20:02:31;10.90;77.80
15298;DHT22;7750;48.796;9.026;2022-11-18T20:07:31;10.90;77.80
15298;DHT22;7750;48.796;9.026;2022-11-18T20:12:35;10.90;77.90
15298;DHT22;7750;48.796;9.026;2022-11-18T20:17:35;11.00;77.90
15298;DHT22;7750;48.796;9.026;2022-11-18T20:22:36;10.90;77.60
15298;DHT22;7750;48.796;9.026;2022-11-18T20:27:37;10.90;77.80
15298;DHT22;7750;48.796;9.026;2022-11-18T20:32:37;10.90;77.80
15298;DHT22;7750;48.796;9.026;2022-11-18T20:37:39;10.80;77.80
15298;DHT22;7750;48.796;9.026;2022-11-18T20:42:42;10.80;77.80
15298;DHT22;7750;48.796;9.026;2022-11-18T20:48:01;10.80;77.80
15298;DHT22;7750;48.796;9.026;2022-11-18T20:53:01;10.70;77.80
15298;DHT22;7750;48.796;9.026;2022-11-18T20:58:02;10.70;77.80
15298;DHT22;7750;48.796;9.026;2022-11-18T21:03:03;10.70;77.90
15298;DHT22;7750;48.796;9.026;2022-11-18T21:08:04;10.60;77.90
15298;DHT22;7750;48.796;9.026;2022-11-18T21:13:05;10.60;78.10
15298;DHT22;7750;48.796;9.026;2022-11-18T21:18:28;10.60;78.20
15298;DHT22;7750;48.796;9.026;2022-11-18T21:23:28;10.50;78.40
15298;DHT22;7750;48.796;9.026;2022-11-18T21:28:29;10.60;78.60
15298;DHT22;7750;48.796;9.026;2022-11-18T21:33:29;10.60;78.80
15298;DHT22;7750;48.796;9.026;2022-11-18T21:38:30;10.60;79.30
15298;DHT22;7750;48.796;9.026;2022-11-18T21:43:32;10.60;79.50
15298;DHT22;7750;48.796;9.026;2022-11-18T21:48:33;10.60;79.60
15298;DHT22;7750;48.796;9.026;2022-11-18T21:53:34;10.50;79.80
15298;DHT22;7750;48.796;9.026;2022-11-18T21:58:35;10.50;80.20
15298;DHT22;7750;48.796;9.026;2022-11-18T22:03:41;10.50;80.40
15298;DHT22;7750;48.796;9.026;2022-11-18T22:08:41;10.50;81.00
15298;DHT22;7750;48.796;9.026;2022-11-18T22:13:42;10.50;81.10
15298;DHT22;7750;48.796;9.026;2022-11-18T22:18:45;10.50;81.30
15298;DHT22;7750;48.796;9.026;2022-11-18T22:23:47;10.50;81.20
15298;DHT22;7750;48.796;9.026;2022-11-18T22:28:52;10.50;81.40
15298;DHT22;7750;48.796;9.026;2022-11-18T22:33:54;10.60;81.50
15298;DHT22;7750;48.796;9.026;2022-11-18T22:38:55;10.50;81.40
15298;DHT22;7750;48.796;9.026;2022-11-18T22:43:56;10.60;81.00
15298;DHT22;7750;48.796;9.026;2022-11-18T22:54:51;10.60;81.40
15298;DHT22;7750;48.796;9.026;2022-11-18T22:59:51;10.60;81.20
15298;DHT22;7750;48.796;9.026;2022-11-18T23:04:52;10.60;81.30
15298;DHT22;7750;48.796;9.026;2022-11-18T23:09:53;10.60;81.30
15298;DHT22;7750;48.796;9.026;2022-11-18T23:14:53;10.70;81.40
15298;DHT22;7750;48.796;9.026;2022-11-18T23:19:54;10.70;81.50
15298;DHT22;7750;48.796;9.026;2022-11-18T23:24:54;10.80;81.70
15298;DHT22;7750;48.796;9.026;2022-11-18T23:29:55;10.80;81.80
15298;DHT22;7750;48.796;9.026;2022-11-18T23:34:56;10.80;81.70
15298;DHT22;7750;48.796;9.026;2022-11-18T23:39:56;10.80;81.50
15298;DHT22;7750;48.796;9.026;2022-11-18T23:44:57;10.80;81.70
15298;DHT22;7750;48.796;9.026;2022-11-18T23:49:57;10.70;81.60
15298;DHT22;7750;48.796;9.026;2022-11-18T23:54:58;10.70;81.40
